sensor_id;sensor_type;location;lat;lon;timestamp;temperature;humidity
43995;DHT22;51687;52.160;5.298;2023-07-13T00:01:49;23.10;53.90
43995;DHT22;51687;52.160;5.298;2023-07-13T00:04:17;23.10;54.00
43995;DHT22;51687;52.160;5.298;2023-07-13T00:06:45;23.10;54.10
43995;DHT22;51687;52.160;5.298;2023-07-13T00:09:14;23.10;53.80
43995;DHT22;51687;52.160;5.298;2023-07-13T00:11:41;23.10;54.10
43995;DHT22;51687;52.160;5.298;2023-07-13T00:14:09;23.10;54.20
43995;DHT22;51687;52.160;5.298;2023-07-13T00:16:38;23.10;54.60
43995;DHT22;51687;52.160;5.298;2023-07-13T00:19:05;23.10;54.40
43995;DHT22;51687;52.160;5.298;2023-07-13T00:21:32;23.10;54.30
43995;DHT22;51687;52.160;5.298;2023-07-13T00:24:00;23.10;54.60
43995;DHT22;51687;52.160;5.298;2023-07-13T00:26:27;23.00;54.70
43995;DHT22;51687;52.160;5.298;2023-07-13T00:28:54;23.10;54.60
43995;DHT22;51687;52.160;5.298;2023-07-13T00:31:23;23.00;54.50
43995;DHT22;51687;52.160;5.298;2023-07-13T00:33:50;23.00;54.40
43995;DHT22;51687;52.160;5.298;2023-07-13T00:36:17;23.10;54.40
43995;DHT22;51687;52.160;5.298;2023-07-13T00:38:44;23.10;54.50
43995;DHT22;51687;52.160;5.298;2023-07-13T00:41:11;23.00;54.40
43995;DHT22;51687;52.160;5.298;2023-07-13T00:43:38;23.10;54.20
43995;DHT22;51687;52.160;5.298;2023-07-13T00:46:32;23.10;54.10
43995;DHT22;51687;52.160;5.298;2023-07-13T00:49:02;23.00;54.10
43995;DHT22;51687;52.160;5.298;2023-07-13T00:51:43;23.00;54.00
43995;DHT22;51687;52.160;5.298;2023-07-13T00:54:22;23.00;54.00
43995;DHT22;51687;52.160;5.298;2023-07-13T00:56:51;23.00;54.00
43995;DHT22;51687;52.160;5.298;2023-07-13T00:59:19;23.00;53.80
43995;DHT22;51687;52.160;5.298;2023-07-13T01:26:26;23.00;53.80
43995;DHT22;51687;52.160;5.298;2023-07-13T01:28:53;22.90;53.80
43995;DHT22;51687;52.160;5.298;2023-07-13T01:31:23;22.80;53.70
43995;DHT22;51687;52.160;5.298;2023-07-13T01:33:50;22.80;53.80
43995;DHT22;51687;52.160;5.298;2023-07-13T01:36:17;22.80;54.10
43995;DHT22;51687;52.160;5.298;2023-07-13T01:38:43;22.80;54.10
43995;DHT22;51687;52.160;5.298;2023-07-13T01:41:11;22.80;54.00
43995;DHT22;51687;52.160;5.298;2023-07-13T01:43:38;22.80;54.00
43995;DHT22;51687;52.160;5.298;2023-07-13T01:46:05;22.80;54.10
43995;DHT22;51687;52.160;5.298;2023-07-13T01:48:48;22.80;54.20
43995;DHT22;51687;52.160;5.298;2023-07-13T01:51:15;22.70;54.20
43995;DHT22;51687;52.160;5.298;2023-07-13T01:53:42;22.80;54.30
43995;DHT22;51687;52.160;5.298;2023-07-13T01:56:09;22.70;54.50
43995;DHT22;51687;52.160;5.298;2023-07-13T01:58:36;22.70;54.40
43995;DHT22;51687;52.160;5.298;2023-07-13T02:01:03;22.70;54.50
43995;DHT22;51687;52.160;5.298;2023-07-13T02:03:30;22.70;54.50
43995;DHT22;51687;52.160;5.298;2023-07-13T02:05:57;22.70;54.60
43995;DHT22;51687;52.160;5.298;2023-07-13T02:08:24;22.70;54.70
43995;DHT22;51687;52.160;5.298;2023-07-13T02:10:51;22.70;55.40
43995;DHT22;51687;52.160;5.298;2023-07-13T02:13:17;22.70;54.80
43995;DHT22;51687;52.160;5.298;2023-07-13T02:15:44;22.70;54.90
43995;DHT22;51687;52.160;5.298;2023-07-13T02:18:11;22.60;54.90
43995;DHT22;51687;52.160;5.298;2023-07-13T02:20:39;22.70;55.20
43995;DHT22;51687;52.160;5.298;2023-07-13T02:23:05;22.60;55.10
43995;DHT22;51687;52.160;5.298;2023-07-13T02:25:36;22.60;55.30
43995;DHT22;51687;52.160;5.298;2023-07-13T02:28:03;22.60;55.40
43995;DHT22;51687;52.160;5.298;2023-07-13T02:30:30;22.60;55.60
43995;DHT22;51687;52.160;5.298;2023-07-13T02:32:58;22.50;55.60
43995;DHT22;51687;52.160;5.298;2023-07-13T02:35:24;22.50;55.70
43995;DHT22;51687;52.160;5.298;2023-07-13T02:37:51;22.50;55.90
43995;DHT22;51687;52.160;5.298;2023-07-13T02:40:18;22.50;55.90
43995;DHT22;51687;52.160;5.298;2023-07-13T02:42:45;22.50;56.00
43995;DHT22;51687;52.160;5.298;2023-07-13T02:45:12;22.50;56.00
43995;DHT22;51687;52.160;5.298;2023-07-13T02:47:41;22.40;56.00
43995;DHT22;51687;52.160;5.298;2023-07-13T02:50:09;22.40;56.10
43995;DHT22;51687;52.160;5.298;2023-07-13T02:52:35;22.40;56.20
43995;DHT22;51687;52.160;5.298;2023-07-13T02:55:03;22.50;56.40
43995;DHT22;51687;52.160;5.298;2023-07-13T02:57:29;22.40;56.40
43995;DHT22;51687;52.160;5.298;2023-07-13T03:00:00;22.40;56.50
43995;DHT22;51687;52.160;5.298;2023-07-13T03:02:26;22.40;56.60
43995;DHT22;51687;52.160;5.298;2023-07-13T03:04:55;22.40;56.70
43995;DHT22;51687;52.160;5.298;2023-07-13T04:08:58;22.40;56.80
43995;DHT22;51687;52.160;5.298;2023-07-13T04:11:27;22.30;57.80
43995;DHT22;51687;52.160;5.298;2023-07-13T04:13:55;22.30;57.60
43995;DHT22;51687;52.160;5.298;2023-07-13T04:16:22;22.30;57.50
43995;DHT22;51687;52.160;5.298;2023-07-13T04:18:49;22.30;57.40
43995;DHT22;51687;52.160;5.298;2023-07-13T04:21:17;22.30;57.40
43995;DHT22;51687;52.160;5.298;2023-07-13T04:23:44;22.30;57.40
43995;DHT22;51687;52.160;5.298;2023-07-13T04:26:10;22.20;57.40
43995;DHT22;51687;52.160;5.298;2023-07-13T08:58:48;22.30;57.50
43995;DHT22;51687;52.160;5.298;2023-07-13T09:01:23;22.20;62.70
43995;DHT22;51687;52.160;5.298;2023-07-13T09:04:07;22.30;64.00
43995;DHT22;51687;52.160;5.298;2023-07-13T09:07:04;22.30;62.80
43995;DHT22;51687;52.160;5.298;2023-07-13T09:12:46;22.30;62.40
43995;DHT22;51687;52.160;5.298;2023-07-13T09:15:26;22.40;62.40
43995;DHT22;51687;52.160;5.298;2023-07-13T09:17:57;22.40;62.50
43995;DHT22;51687;52.160;5.298;2023-07-13T09:20:39;22.50;63.30
43995;DHT22;51687;52.160;5.298;2023-07-13T09:23:14;22.50;64.00
43995;DHT22;51687;52.160;5.298;2023-07-13T09:25:42;22.50;63.90
43995;DHT22;51687;52.160;5.298;2023-07-13T09:28:27;22.50;63.60
43995;DHT22;51687;52.160;5.298;2023-07-13T09:31:04;22.60;64.50
43995;DHT22;51687;52.160;5.298;2023-07-13T09:33:32;22.60;65.30
43995;DHT22;51687;52.160;5.298;2023-07-13T09:35:59;22.60;64.30
43995;DHT22;51687;52.160;5.298;2023-07-13T09:38:28;22.60;64.60
43995;DHT22;51687;52.160;5.298;2023-07-13T09:41:20;22.70;65.50
43995;DHT22;51687;52.160;5.298;2023-07-13T09:44:13;22.70;65.90
43995;DHT22;51687;52.160;5.298;2023-07-13T09:46:51;22.70;65.00
43995;DHT22;51687;52.160;5.298;2023-07-13T09:49:27;22.70;64.80
43995;DHT22;51687;52.160;5.298;2023-07-13T09:52:05;22.70;62.80
43995;DHT22;51687;52.160;5.298;2023-07-13T09:54:36;22.70;61.20
43995;DHT22;51687;52.160;5.298;2023-07-13T09:57:12;22.60;60.20
43995;DHT22;51687;52.160;5.298;2023-07-13T09:59:43;22.60;61.60
43995;DHT22;51687;52.160;5.298;2023-07-13T10:02:34;22.60;61.50
43995;DHT22;51687;52.160;5.298;2023-07-13T10:05:03;22.70;62.30
43995;DHT22;51687;52.160;5.298;2023-07-13T10:07:32;22.70;62.50
43995;DHT22;51687;52.160;5.298;2023-07-13T10:10:00;22.70;65.00
43995;DHT22;51687;52.160;5.298;2023-07-13T10:12:29;22.70;65.70
43995;DHT22;51687;52.160;5.298;2023-07-13T10:15:00;22.60;65.70
43995;DHT22;51687;52.160;5.298;2023-07-13T10:17:48;22.60;65.10
43995;DHT22;51687;52.160;5.298;2023-07-13T10:20:17;22.60;65.80
43995;DHT22;51687;52.160;5.298;2023-07-13T10:23:02;22.70;66.70
43995;DHT22;51687;52.160;5.298;2023-07-13T10:25:34;22.70;66.80
43995;DHT22;51687;52.160;5.298;2023-07-13T10:30:47;22.60;67.50
43995;DHT22;51687;52.160;5.298;2023-07-13T10:33:15;22.70;67.60
43995;DHT22;51687;52.160;5.298;2023-07-13T10:35:43;22.70;67.30
43995;DHT22;51687;52.160;5.298;2023-07-13T10:38:13;22.60;65.30
43995;DHT22;51687;52.160;5.298;2023-07-13T10:40:52;22.70;66.20
43995;DHT22;51687;52.160;5.298;2023-07-13T10:43:35;22.60;66.20
43995;DHT22;51687;52.160;5.298;2023-07-13T10:46:10;22.70;66.40
43995;DHT22;51687;52.160;5.298;2023-07-13T10:48:39;22.70;67.20
43995;DHT22;51687;52.160;5.298;2023-07-13T10:51:09;22.70;67.60
43995;DHT22;51687;52.160;5.298;2023-07-13T10:53:38;22.70;67.60
43995;DHT22;51687;52.160;5.298;2023-07-13T10:56:28;22.70;69.00
43995;DHT22;51687;52.160;5.298;2023-07-13T10:59:14;22.80;68.70
43995;DHT22;51687;52.160;5.298;2023-07-13T11:01:55;22.80;68.90
43995;DHT22;51687;52.160;5.298;2023-07-13T11:04:24;22.80;68.90
43995;DHT22;51687;52.160;5.298;2023-07-13T11:06:58;22.90;67.60
43995;DHT22;51687;52.160;5.298;2023-07-13T11:09:40;22.90;68.20
43995;DHT22;51687;52.160;5.298;2023-07-13T11:30:39;22.90;69.90
43995;DHT22;51687;52.160;5.298;2023-07-13T11:40:55;23.10;68.80
43995;DHT22;51687;52.160;5.298;2023-07-13T11:43:22;23.10;67.10
43995;DHT22;51687;52.160;5.298;2023-07-13T11:45:52;23.10;66.60
43995;DHT22;51687;52.160;5.298;2023-07-13T11:48:25;23.10;63.70
43995;DHT22;51687;52.160;5.298;2023-07-13T11:51:01;23.10;64.10
43995;DHT22;51687;52.160;5.298;2023-07-13T11:53:35;23.00;64.00
43995;DHT22;51687;52.160;5.298;2023-07-13T11:56:04;23.10;64.90
43995;DHT22;51687;52.160;5.298;2023-07-13T11:58:32;23.10;65.60
43995;DHT22;51687;52.160;5.298;2023-07-13T12:01:01;23.10;66.10
43995;DHT22;51687;52.160;5.298;2023-07-13T12:03:33;23.20;65.80
43995;DHT22;51687;52.160;5.298;2023-07-13T13:11:40;23.20;67.60
43995;DHT22;51687;52.160;5.298;2023-07-13T13:14:08;23.50;58.40
43995;DHT22;51687;52.160;5.298;2023-07-13T13:16:45;23.50;57.90
43995;DHT22;51687;52.160;5.298;2023-07-13T13:19:16;23.50;57.90
43995;DHT22;51687;52.160;5.298;2023-07-13T13:21:44;23.50;57.90
43995;DHT22;51687;52.160;5.298;2023-07-13T13:24:17;23.50;56.50
43995;DHT22;51687;52.160;5.298;2023-07-13T13:26:45;23.50;56.70
43995;DHT22;51687;52.160;5.298;2023-07-13T13:29:17;23.50;57.70
43995;DHT22;51687;52.160;5.298;2023-07-13T13:31:44;23.50;59.90
43995;DHT22;51687;52.160;5.298;2023-07-13T13:34:15;23.50;57.50
43995;DHT22;51687;52.160;5.298;2023-07-13T13:36:44;23.50;58.70
43995;DHT22;51687;52.160;5.298;2023-07-13T13:39:16;23.50;59.40
43995;DHT22;51687;52.160;5.298;2023-07-13T13:41:44;23.50;58.80
43995;DHT22;51687;52.160;5.298;2023-07-13T13:44:14;23.50;58.10
43995;DHT22;51687;52.160;5.298;2023-07-13T13:46:42;23.60;59.30
43995;DHT22;51687;52.160;5.298;2023-07-13T13:49:17;23.60;59.00
43995;DHT22;51687;52.160;5.298;2023-07-13T13:51:45;23.60;58.20
43995;DHT22;51687;52.160;5.298;2023-07-13T13:54:16;23.60;56.60
43995;DHT22;51687;52.160;5.298;2023-07-13T13:56:45;23.60;56.70
43995;DHT22;51687;52.160;5.298;2023-07-13T13:59:13;23.70;56.40
43995;DHT22;51687;52.160;5.298;2023-07-13T14:01:42;23.70;56.10
43995;DHT22;51687;52.160;5.298;2023-07-13T14:04:15;23.70;57.00
43995;DHT22;51687;52.160;5.298;2023-07-13T14:06:44;23.70;56.30
43995;DHT22;51687;52.160;5.298;2023-07-13T14:09:14;23.70;56.00
43995;DHT22;51687;52.160;5.298;2023-07-13T14:11:42;23.80;56.10
43995;DHT22;51687;52.160;5.298;2023-07-13T14:14:16;23.80;55.40
43995;DHT22;51687;52.160;5.298;2023-07-13T14:16:44;23.80;55.30
43995;DHT22;51687;52.160;5.298;2023-07-13T14:19:14;23.80;55.20
43995;DHT22;51687;52.160;5.298;2023-07-13T15:26:15;23.80;55.70
43995;DHT22;51687;52.160;5.298;2023-07-13T15:28:42;24.10;52.10
43995;DHT22;51687;52.160;5.298;2023-07-13T15:31:25;24.10;52.70
43995;DHT22;51687;52.160;5.298;2023-07-13T21:48:24;24.00;51.30
43995;DHT22;51687;52.160;5.298;2023-07-13T21:58:17;23.00;55.60
43995;DHT22;51687;52.160;5.298;2023-07-13T22:00:44;22.80;56.00
43995;DHT22;51687;52.160;5.298;2023-07-13T22:03:23;22.80;55.50
43995;DHT22;51687;52.160;5.298;2023-07-13T22:05:52;22.70;55.30
43995;DHT22;51687;52.160;5.298;2023-07-13T22:08:21;22.70;55.70
43995;DHT22;51687;52.160;5.298;2023-07-13T22:13:18;22.70;56.00
43995;DHT22;51687;52.160;5.298;2023-07-13T22:15:45;22.60;55.90
43995;DHT22;51687;52.160;5.298;2023-07-13T22:18:15;22.60;55.70
43995;DHT22;51687;52.160;5.298;2023-07-13T22:20:56;22.50;55.50
43995;DHT22;51687;52.160;5.298;2023-07-13T22:23:24;22.50;55.70
43995;DHT22;51687;52.160;5.298;2023-07-13T22:25:54;22.50;55.80
43995;DHT22;51687;52.160;5.298;2023-07-13T22:28:23;22.40;55.90
43995;DHT22;51687;52.160;5.298;2023-07-13T22:30:51;22.40;55.90
43995;DHT22;51687;52.160;5.298;2023-07-13T22:33:22;22.40;55.90
